KRRL/RRL METAR and TAF weather

Enter ICAO airport designator
Station Type Date Time Source
KRRL METAR 2019/12/07 00:15 UTC NOAA

KRRL 070015Z AUTO 22003KT 10SM CLR M07/M11 A3030 RMK AO2 T10751109 TSNO


Station Type Date Time Source
KRRL Decoded METAR 2019/12/07 00:15 UTC NOAA

Merrill, Merrill Municipal Airport, WI, United States (KRRL) 45-11N 089-42W
Dec 06, 2019 - 07:15 PM EST / 2019.12.07 0015 UTC
Wind: from the SW (220 degrees) at 3 MPH (3 KT):0
Visibility: 10 mile(s):0
Sky conditions: clear
Temperature: 18.5 F (-7.5 C)
Dew Point: 12.4 F (-10.9 C)
Relative Humidity: 76%
Pressure (altimeter): 30.3 in. Hg (1026 hPa)
ob: KRRL 070015Z AUTO 22003KT 10SM CLR M07/M11 A3030 RMK AO2 T10751109 TSNO
cycle: 0

Station Type Date Time Source
KRRL TAF UTC NOAA

Error!

Example: see airport list